createdAt,value
2023-03-21T00:01:50.757Z,80.93
2023-03-21T00:04:18.481Z,80.75
2023-03-21T00:06:46.574Z,80.72
2023-03-21T00:09:14.298Z,80.74
2023-03-21T00:11:43.685Z,80.96
2023-03-21T00:14:14.384Z,81.08
2023-03-21T00:16:45.882Z,81.14
2023-03-21T00:19:14.484Z,81.22
2023-03-21T00:22:06.045Z,81.33
2023-03-21T00:24:30.791Z,81.53
2023-03-21T00:27:12.554Z,81.74
2023-03-21T00:29:49.305Z,82.06
2023-03-21T00:32:19.084Z,82.23
2023-03-21T00:35:01.384Z,82.43
2023-03-21T00:37:34.324Z,82.51
2023-03-21T00:40:16.392Z,82.64
2023-03-21T00:42:52.461Z,82.64
2023-03-21T00:45:21.972Z,82.77
2023-03-21T00:47:49.796Z,82.89
2023-03-21T00:50:18.144Z,83.01
2023-03-21T00:52:46.089Z,83.05
2023-03-21T00:55:14.849Z,83.19
2023-03-21T00:57:45.314Z,83.11
2023-03-21T01:00:17.988Z,83.12
2023-03-21T01:03:02.594Z,83.17
2023-03-21T01:05:50.558Z,83.28
2023-03-21T01:08:25.366Z,83.29
2023-03-21T01:10:54.682Z,83.36
2023-03-21T01:13:23.188Z,83.47
2023-03-21T01:15:53.261Z,83.49
2023-03-21T01:18:21.946Z,83.41
2023-03-21T01:20:50.820Z,83.45
2023-03-21T01:23:18.688Z,83.39
2023-03-21T01:25:48.238Z,83.34
2023-03-21T01:28:16.165Z,83.35
2023-03-21T01:30:45.958Z,83.40
2023-03-21T01:33:15.498Z,83.35
2023-03-21T01:35:50.391Z,83.45
2023-03-21T01:38:21.854Z,83.49
2023-03-21T01:40:51.152Z,83.56
2023-03-21T01:43:27.197Z,83.64
2023-03-21T01:46:11.371Z,83.68
2023-03-21T01:49:02.150Z,83.79
2023-03-21T01:51:31.793Z,83.65
2023-03-21T01:54:00.580Z,83.76
2023-03-21T01:56:32.922Z,83.87
2023-03-21T01:59:09.364Z,84.01
2023-03-21T02:01:57.097Z,83.86
2023-03-21T02:04:30.305Z,83.59
2023-03-21T02:07:13.079Z,83.45
2023-03-21T02:09:48.168Z,83.15
2023-03-21T02:12:21.739Z,83.23
2023-03-21T02:14:51.115Z,82.98
2023-03-21T02:17:29.610Z,82.84
2023-03-21T02:20:08.934Z,85.42
2023-03-21T02:22:52.445Z,87.43
2023-03-21T02:25:34.220Z,83.09
2023-03-21T02:28:07.940Z,84.06
2023-03-21T02:30:56.544Z,83.94
2023-03-21T02:33:36.996Z,81.53
2023-03-21T02:36:16.736Z,82.78
2023-03-21T02:38:49.219Z,81.41
2023-03-21T02:41:20.211Z,82.36
2023-03-21T02:43:53.327Z,81.44
2023-03-21T02:46:28.345Z,81.64
2023-03-21T02:49:04.177Z,80.45
2023-03-21T02:51:32.174Z,80.36
2023-03-21T02:54:28.157Z,81.59
2023-03-21T02:56:52.954Z,78.78
2023-03-21T02:59:22.637Z,80.78
2023-03-21T03:01:52.373Z,81.32
2023-03-21T03:04:21.271Z,78.77
2023-03-21T03:06:57.811Z,79.59
2023-03-21T03:09:32.452Z,78.25
2023-03-21T03:12:06.147Z,79.05
2023-03-21T03:14:53.145Z,78.60
2023-03-21T03:17:34.272Z,77.94
2023-03-21T03:20:16.457Z,77.90
2023-03-21T03:22:50.759Z,78.06
2023-03-21T03:25:35.864Z,77.59
2023-03-21T03:28:10.013Z,78.12
2023-03-21T03:30:43.340Z,77.98
2023-03-21T03:33:17.213Z,77.90
2023-03-21T03:35:48.312Z,78.44
2023-03-21T03:38:22.920Z,78.09
2023-03-21T03:40:56.245Z,78.40
2023-03-21T03:43:52.283Z,78.51
2023-03-21T03:46:24.250Z,78.66
2023-03-21T03:48:54.663Z,79.05
2023-03-21T03:51:24.908Z,78.99
2023-03-21T03:54:12.570Z,78.82
2023-03-21T03:56:41.919Z,78.34
2023-03-21T03:59:10.187Z,78.49
2023-03-21T04:01:54.833Z,79.22
2023-03-21T04:04:29.485Z,79.17
2023-03-21T04:06:58.965Z,79.02
2023-03-21T04:09:42.613Z,79.15
2023-03-21T04:12:13.067Z,79.45
2023-03-21T04:14:46.069Z,79.84
2023-03-21T04:17:16.645Z,78.89
2023-03-21T04:19:45.434Z,79.16
2023-03-21T04:22:13.531Z,79.28
2023-03-21T04:24:44.098Z,78.53
2023-03-21T04:27:13.646Z,78.79
2023-03-21T04:29:43.600Z,78.94
2023-03-21T04:32:33.859Z,78.67
2023-03-21T04:35:09.796Z,78.59
2023-03-21T04:37:39.195Z,78.72
2023-03-21T04:40:11.205Z,79.14
2023-03-21T04:42:40.722Z,78.87
2023-03-21T04:45:09.081Z,78.52
2023-03-21T04:47:36.770Z,79.36
2023-03-21T04:50:04.725Z,78.86
2023-03-21T04:52:32.400Z,79.63
2023-03-21T04:55:00.953Z,78.89
2023-03-21T04:57:28.691Z,78.98
2023-03-21T04:59:57.736Z,79.40
2023-03-21T05:02:25.632Z,79.73
2023-03-21T05:04:53.517Z,79.32
2023-03-21T05:07:26.338Z,79.43
2023-03-21T05:09:55.346Z,79.71
2023-03-21T05:12:23.296Z,79.42
2023-03-21T05:14:51.104Z,79.77
2023-03-21T05:17:23.338Z,79.44
2023-03-21T05:19:52.867Z,80.01
2023-03-21T05:22:20.973Z,79.76
2023-03-21T05:24:50.287Z,79.68
2023-03-21T05:27:37.116Z,79.85
2023-03-21T05:30:10.568Z,79.64
2023-03-21T05:32:39.884Z,79.88
2023-03-21T05:35:11.246Z,80.14
2023-03-21T05:37:39.267Z,81.39
2023-03-21T05:40:09.270Z,80.57
2023-03-21T05:42:39.593Z,80.99
2023-03-21T05:45:16.799Z,81.13
2023-03-21T05:47:45.899Z,81.84
2023-03-21T05:50:15.993Z,82.65
2023-03-21T05:52:49.731Z,83.42
2023-03-21T05:55:17.482Z,83.81
2023-03-21T05:57:45.709Z,83.88
2023-03-21T06:00:25.382Z,84.31
2023-03-21T06:03:29.740Z,84.36
2023-03-21T06:06:07.751Z,84.48
2023-03-21T06:08:40.285Z,84.63
2023-03-21T06:11:12.664Z,85.22
2023-03-21T06:13:40.472Z,85.61
2023-03-21T06:16:09.155Z,85.53
2023-03-21T06:18:38.731Z,86.27
2023-03-21T06:21:19.412Z,85.73
2023-03-21T06:23:51.524Z,85.99
2023-03-21T06:26:22.810Z,85.67
2023-03-21T06:28:54.889Z,85.89
2023-03-21T06:31:25.154Z,85.41
2023-03-21T06:33:55.966Z,85.33
2023-03-21T06:36:23.691Z,85.78
2023-03-21T06:38:51.983Z,85.97
2023-03-21T06:41:20.326Z,86.06
2023-03-21T06:44:01.408Z,85.97
2023-03-21T06:46:32.336Z,85.53
2023-03-21T06:49:01.688Z,85.48
2023-03-21T06:51:30.814Z,85.38
2023-03-21T06:54:10.646Z,85.55
2023-03-21T06:56:49.824Z,85.15
2023-03-21T06:59:24.462Z,85.44
2023-03-21T07:02:07.807Z,84.90
2023-03-21T07:04:42.242Z,84.73
2023-03-21T07:07:15.694Z,84.26
2023-03-21T07:09:43.769Z,83.81
2023-03-21T07:12:11.539Z,84.11
2023-03-21T07:14:57.625Z,83.37
2023-03-21T07:17:25.565Z,83.58
2023-03-21T07:19:54.681Z,82.43
2023-03-21T07:22:22.511Z,82.91
2023-03-21T07:25:02.412Z,82.31
2023-03-21T07:27:33.578Z,81.85
2023-03-21T07:30:01.250Z,81.82
2023-03-21T07:32:30.044Z,81.50
2023-03-21T07:35:01.575Z,81.24
2023-03-21T07:37:29.486Z,81.52
2023-03-21T07:39:57.597Z,81.37
2023-03-21T07:42:26.505Z,81.27
2023-03-21T07:45:00.233Z,81.08
2023-03-21T07:47:33.662Z,80.70
2023-03-21T07:50:04.431Z,80.65
2023-03-21T07:52:32.813Z,80.99
2023-03-21T07:55:00.462Z,80.84
2023-03-21T07:57:28.150Z,81.07
2023-03-21T07:59:55.841Z,80.68
2023-03-21T08:02:23.494Z,80.34
2023-03-21T08:04:51.479Z,79.80
2023-03-21T08:07:20.570Z,79.55
2023-03-21T08:09:48.252Z,80.25
2023-03-21T08:12:16.783Z,79.97
2023-03-21T08:14:44.433Z,79.65
2023-03-21T08:17:12.321Z,78.99
2023-03-21T08:19:39.973Z,78.88
2023-03-21T08:22:07.616Z,78.79
2023-03-21T08:24:36.646Z,78.26
2023-03-21T08:27:04.431Z,77.26
2023-03-21T08:29:32.116Z,77.75
2023-03-21T08:31:59.782Z,78.55
2023-03-21T08:34:27.864Z,79.80
2023-03-21T08:36:55.570Z,80.23
2023-03-21T08:39:24.895Z,81.36
2023-03-21T08:41:53.973Z,81.13
2023-03-21T08:44:22.130Z,81.21
2023-03-21T08:46:49.799Z,81.32
2023-03-21T08:49:17.536Z,80.74
2023-03-21T08:51:45.741Z,80.89
2023-03-21T08:54:19.740Z,81.37
2023-03-21T08:56:47.430Z,80.14
2023-03-21T08:59:16.693Z,80.35
2023-03-21T09:01:45.081Z,79.71
2023-03-21T09:04:12.859Z,79.70
2023-03-21T09:06:48.044Z,79.67
2023-03-21T09:09:15.962Z,79.48
2023-03-21T09:11:43.841Z,79.69
2023-03-21T09:14:11.739Z,78.88
2023-03-21T09:16:41.284Z,78.70
2023-03-21T09:19:09.698Z,78.93
2023-03-21T09:21:38.235Z,77.80
2023-03-21T09:24:06.754Z,76.52
2023-03-21T09:26:34.882Z,76.86
2023-03-21T09:29:03.682Z,76.79
2023-03-21T09:31:31.347Z,75.92
2023-03-21T09:34:00.398Z,75.15
2023-03-21T09:36:28.238Z,73.93
2023-03-21T09:38:56.977Z,73.22
2023-03-21T09:41:33.047Z,72.83
2023-03-21T09:44:08.179Z,72.99
2023-03-21T09:46:41.024Z,73.38
2023-03-21T09:49:11.338Z,73.55
2023-03-21T09:51:41.279Z,73.73
2023-03-21T09:54:13.860Z,73.60
2023-03-21T09:56:42.482Z,73.66
2023-03-21T09:59:15.660Z,73.28
2023-03-21T10:01:45.476Z,73.25
2023-03-21T10:04:16.728Z,72.65
2023-03-21T10:06:45.771Z,72.54
2023-03-21T10:09:16.180Z,72.47
2023-03-21T10:11:45.050Z,72.01
2023-03-21T10:14:17.477Z,71.49
2023-03-21T10:16:46.672Z,71.45
2023-03-21T10:19:18.333Z,71.79
2023-03-21T10:22:00.127Z,72.63
2023-03-21T10:24:29.729Z,71.61
2023-03-21T10:26:57.948Z,72.02
2023-03-21T10:29:28.098Z,72.28
2023-03-21T10:31:56.440Z,71.55
2023-03-21T10:34:29.490Z,71.20
2023-03-21T10:36:57.150Z,71.57
2023-03-21T10:39:27.482Z,71.21
2023-03-21T10:41:55.166Z,71.45
2023-03-21T10:44:22.895Z,72.00
2023-03-21T10:46:52.311Z,72.36
2023-03-21T10:49:21.572Z,72.88
2023-03-21T10:51:52.928Z,72.66
2023-03-21T10:54:21.944Z,72.76
2023-03-21T10:56:53.953Z,72.53
2023-03-21T10:59:22.743Z,72.44
2023-03-21T11:01:51.636Z,72.86
2023-03-21T11:04:20.645Z,73.70
2023-03-21T11:06:53.229Z,75.07
2023-03-21T11:09:24.858Z,75.14
2023-03-21T11:11:53.971Z,76.01
2023-03-21T11:14:26.202Z,77.48
2023-03-21T11:16:53.900Z,76.63
2023-03-21T11:19:27.666Z,77.63
2023-03-21T11:21:57.502Z,77.21
2023-03-21T11:24:29.503Z,77.71
2023-03-21T11:26:57.683Z,77.22
2023-03-21T11:29:28.457Z,76.66
2023-03-21T11:31:59.791Z,77.12
2023-03-21T11:34:29.024Z,76.44
2023-03-21T11:40:06.264Z,75.75
2023-03-21T11:42:40.960Z,75.46
2023-03-21T11:45:13.367Z,74.59
2023-03-21T11:47:41.174Z,74.15
2023-03-21T11:50:27.047Z,73.98
2023-03-21T11:53:02.731Z,74.35
2023-03-21T11:55:37.558Z,74.21
2023-03-21T11:58:14.904Z,73.89
2023-03-21T12:00:46.660Z,73.54
2023-03-21T12:03:46.820Z,73.42
2023-03-21T12:06:20.600Z,72.33
2023-03-21T12:08:52.559Z,71.85
2023-03-21T12:11:26.028Z,72.04
2023-03-21T12:14:00.021Z,71.73
2023-03-21T12:16:34.168Z,71.27
2023-03-21T12:19:07.712Z,70.50
2023-03-21T12:21:37.413Z,69.42
2023-03-21T12:24:07.570Z,69.48
2023-03-21T12:26:41.372Z,69.50
2023-03-21T12:29:14.439Z,69.26
2023-03-21T12:34:31.051Z,68.34
2023-03-21T12:37:08.723Z,68.72
2023-03-21T12:39:38.106Z,68.09
2023-03-21T12:42:29.662Z,66.86
2023-03-21T12:45:06.144Z,66.61
2023-03-21T12:47:36.669Z,65.22
2023-03-21T12:50:14.511Z,63.68
2023-03-21T12:52:45.006Z,64.08
2023-03-21T12:55:19.902Z,64.25
2023-03-21T12:57:57.128Z,63.84
2023-03-21T13:00:29.721Z,64.25
2023-03-21T13:03:01.311Z,63.81
2023-03-21T13:05:32.776Z,63.68
2023-03-21T13:08:04.848Z,64.48
2023-03-21T13:10:34.781Z,63.26
2023-03-21T13:13:13.478Z,63.67
2023-03-21T13:15:52.356Z,63.32
2023-03-21T13:18:29.448Z,63.31
2023-03-21T13:21:00.770Z,63.67
2023-03-21T13:23:36.148Z,63.93
2023-03-21T13:26:04.645Z,63.98
2023-03-21T13:28:35.812Z,63.92
2023-03-21T13:31:21.515Z,62.41
2023-03-21T13:33:50.637Z,62.27
2023-03-21T13:36:25.708Z,62.60
2023-03-21T13:38:55.688Z,62.50
2023-03-21T13:41:29.556Z,61.67
2023-03-21T13:44:09.822Z,62.31
2023-03-21T13:46:53.561Z,63.14
2023-03-21T13:49:31.878Z,63.08
2023-03-21T13:52:02.612Z,62.47
2023-03-21T13:54:48.108Z,62.59
2023-03-21T13:57:38.235Z,63.31
2023-03-21T14:00:20.283Z,63.32
2023-03-21T14:02:56.604Z,62.74
2023-03-21T14:05:26.539Z,61.00
2023-03-21T14:08:12.253Z,60.02
2023-03-21T14:10:46.108Z,60.52
2023-03-21T14:13:19.090Z,59.59
2023-03-21T14:15:56.315Z,59.76
2023-03-21T14:18:35.289Z,58.86
2023-03-21T14:21:23.351Z,58.63
2023-03-21T14:24:01.934Z,58.56
2023-03-21T14:26:33.490Z,59.61
2023-03-21T14:29:05.229Z,59.75
2023-03-21T14:31:33.810Z,60.57
2023-03-21T14:34:03.726Z,60.56
2023-03-21T14:36:34.594Z,60.76
2023-03-21T14:39:13.271Z,60.18
2023-03-21T14:41:47.441Z,59.68
2023-03-21T14:44:28.720Z,60.00
2023-03-21T14:47:02.457Z,60.14
2023-03-21T14:49:32.045Z,59.22
2023-03-21T14:52:02.202Z,59.38
2023-03-21T14:54:32.304Z,59.50
2023-03-21T14:57:02.838Z,60.57
2023-03-21T14:59:34.549Z,60.68
2023-03-21T15:02:05.531Z,61.12
2023-03-21T15:04:34.037Z,61.59
2023-03-21T15:07:05.097Z,61.51
2023-03-21T15:09:35.433Z,60.47
2023-03-21T15:12:08.558Z,61.05
2023-03-21T15:14:38.368Z,60.60
2023-03-21T15:17:07.696Z,60.52
2023-03-21T15:19:36.883Z,61.11
2023-03-21T15:22:09.353Z,61.38
2023-03-21T15:24:42.578Z,61.69
2023-03-21T15:27:16.136Z,61.30
2023-03-21T15:29:44.692Z,61.16
2023-03-21T15:32:18.647Z,60.46
2023-03-21T15:34:47.311Z,60.73
2023-03-21T15:37:18.475Z,61.38
2023-03-21T15:39:49.324Z,61.51
2023-03-21T15:42:30.213Z,61.61
2023-03-21T15:45:02.045Z,62.01
2023-03-21T15:47:51.086Z,61.30
2023-03-21T15:50:27.320Z,60.86
2023-03-21T15:52:56.672Z,60.68
2023-03-21T15:55:30.060Z,60.78
2023-03-21T15:58:01.967Z,61.07
2023-03-21T16:00:38.630Z,61.24
2023-03-21T16:03:10.234Z,60.93
2023-03-21T16:05:38.489Z,60.69
2023-03-21T16:08:22.111Z,60.79
2023-03-21T16:10:51.696Z,61.25
2023-03-21T16:13:19.359Z,61.41
2023-03-21T16:15:47.519Z,61.58
2023-03-21T16:18:18.011Z,61.10
2023-03-21T16:20:49.179Z,62.27
2023-03-21T16:23:17.948Z,61.52
2023-03-21T16:25:45.855Z,61.27
2023-03-21T16:28:17.865Z,61.38
2023-03-21T16:30:45.979Z,61.73
2023-03-21T16:33:14.500Z,62.26
2023-03-21T16:35:42.473Z,62.32
2023-03-21T16:38:11.119Z,62.77
2023-03-21T16:40:41.445Z,62.43
2023-03-21T16:43:09.860Z,62.70
2023-03-21T16:45:39.172Z,62.78
2023-03-21T16:48:08.893Z,62.99
2023-03-21T16:50:41.330Z,62.86
2023-03-21T16:53:10.057Z,63.00
2023-03-21T16:55:38.825Z,63.43
2023-03-21T16:58:06.945Z,63.65
2023-03-21T17:00:36.331Z,63.80
2023-03-21T17:03:15.158Z,63.84
2023-03-21T17:05:46.096Z,63.82
2023-03-21T17:08:16.844Z,64.09
2023-03-21T17:10:44.999Z,64.58
2023-03-21T17:13:12.961Z,64.66
2023-03-21T17:15:41.837Z,64.87
2023-03-21T17:18:11.494Z,65.54
2023-03-21T17:20:41.719Z,65.68
2023-03-21T17:23:10.320Z,65.56
2023-03-21T17:25:38.231Z,65.97
2023-03-21T17:28:06.384Z,65.99
2023-03-21T17:30:40.084Z,66.25
2023-03-21T17:33:08.774Z,66.73
2023-03-21T17:35:38.962Z,66.75
2023-03-21T17:38:07.971Z,67.07
2023-03-21T17:40:35.882Z,67.31
2023-03-21T17:43:03.795Z,67.45
2023-03-21T17:45:31.723Z,67.75
2023-03-21T17:47:59.591Z,69.30
2023-03-21T17:50:34.043Z,70.50
2023-03-21T17:53:03.324Z,71.38
2023-03-21T17:55:31.425Z,71.05
2023-03-21T17:57:59.565Z,70.59
2023-03-21T18:00:29.470Z,70.81
2023-03-21T18:02:58.005Z,70.42
2023-03-21T18:05:27.370Z,70.68
2023-03-21T18:08:12.514Z,71.04
2023-03-21T18:10:43.038Z,71.25
2023-03-21T18:13:11.711Z,71.58
2023-03-21T18:15:44.082Z,71.59
2023-03-21T18:18:13.042Z,71.71
2023-03-21T18:20:58.415Z,71.92
2023-03-21T18:23:26.927Z,72.05
2023-03-21T18:25:56.321Z,72.36
2023-03-21T18:28:24.270Z,72.46
2023-03-21T18:31:14.252Z,72.63
2023-03-21T18:33:45.089Z,72.83
2023-03-21T18:36:16.223Z,72.89
2023-03-21T18:38:44.264Z,73.30
2023-03-21T18:41:15.051Z,73.30
2023-03-21T18:46:31.595Z,73.37
2023-03-21T18:49:20.011Z,73.39
2023-03-21T18:51:47.958Z,73.44
2023-03-21T18:54:15.935Z,73.69
2023-03-21T18:59:39.124Z,74.22
2023-03-21T19:02:07.719Z,74.28
2023-03-21T19:04:37.325Z,74.87
2023-03-21T19:07:05.653Z,75.27
2023-03-21T19:09:54.839Z,75.62
2023-03-21T19:12:22.962Z,75.95
2023-03-21T19:14:50.666Z,76.05
2023-03-21T19:20:07.441Z,76.36
2023-03-21T19:22:35.617Z,76.40
2023-03-21T19:25:05.576Z,76.53
2023-03-21T19:27:35.829Z,76.62
2023-03-21T19:30:13.973Z,76.89
2023-03-21T19:32:42.657Z,77.00
2023-03-21T19:35:11.216Z,76.98
2023-03-21T19:37:39.152Z,77.06
2023-03-21T19:40:09.067Z,77.20
2023-03-21T19:42:38.319Z,77.31
2023-03-21T19:45:06.502Z,77.15
2023-03-21T19:47:34.383Z,77.14
2023-03-21T19:52:50.083Z,76.88
2023-03-21T19:55:18.024Z,76.84
2023-03-21T19:57:49.143Z,76.80
2023-03-21T20:00:18.773Z,76.75
2023-03-21T20:02:47.251Z,76.86
2023-03-21T20:05:17.052Z,77.13
2023-03-21T20:07:45.018Z,77.36
2023-03-21T20:10:12.957Z,77.40
2023-03-21T20:12:40.839Z,77.38
2023-03-21T20:15:17.737Z,77.65
2023-03-21T20:17:48.038Z,77.79
2023-03-21T20:20:18.349Z,77.98
2023-03-21T20:23:07.493Z,78.22
2023-03-21T20:25:36.587Z,78.34
2023-03-21T20:28:26.009Z,78.34
2023-03-21T20:30:56.988Z,78.52
2023-03-21T20:33:25.508Z,78.61
2023-03-21T20:38:50.898Z,78.79
2023-03-21T20:41:19.092Z,79.02
2023-03-21T20:44:28.508Z,79.01
2023-03-21T20:46:37.710Z,79.22
2023-03-21T20:49:07.276Z,79.38
2023-03-21T20:54:23.906Z,79.67
2023-03-21T20:56:51.840Z,79.71
2023-03-21T20:59:26.404Z,79.73
2023-03-21T21:01:57.173Z,79.66
2023-03-21T21:04:44.140Z,79.58
2023-03-21T21:07:15.995Z,79.55
2023-03-21T21:09:44.587Z,79.57
2023-03-21T21:12:13.005Z,79.64
2023-03-21T21:14:41.425Z,79.82
2023-03-21T21:17:28.321Z,79.87
2023-03-21T21:20:01.523Z,80.05
2023-03-21T21:22:29.618Z,79.94
2023-03-21T21:24:57.481Z,79.90
2023-03-21T21:27:26.019Z,79.82
2023-03-21T21:29:53.837Z,79.82
2023-03-21T21:32:23.159Z,79.75
2023-03-21T21:34:50.830Z,79.47
2023-03-21T21:37:18.727Z,79.48
2023-03-21T21:39:46.729Z,79.28
2023-03-21T21:42:14.675Z,79.21
2023-03-21T21:44:44.951Z,79.07
2023-03-21T21:47:13.012Z,79.11
2023-03-21T21:49:42.414Z,79.04
2023-03-21T21:52:13.314Z,79.06
2023-03-21T21:54:45.488Z,79.19
2023-03-21T21:57:13.971Z,79.24
2023-03-21T21:59:41.936Z,79.44
2023-03-21T22:02:11.736Z,79.61
2023-03-21T22:04:39.646Z,79.66
2023-03-21T22:07:14.668Z,79.70
2023-03-21T22:09:43.178Z,79.83
2023-03-21T22:12:11.364Z,79.74
2023-03-21T22:14:39.198Z,79.93
2023-03-21T22:17:07.304Z,80.05
2023-03-21T22:19:35.199Z,79.96
2023-03-21T22:22:03.122Z,80.01
2023-03-21T22:24:32.327Z,80.10
2023-03-21T22:27:00.213Z,80.17
2023-03-21T22:29:28.786Z,80.23
2023-03-21T22:31:56.783Z,80.21
2023-03-21T22:34:26.076Z,80.31
2023-03-21T22:36:55.809Z,80.44
2023-03-21T22:39:26.196Z,80.48
2023-03-21T22:41:57.787Z,80.65
2023-03-21T22:44:25.736Z,80.71
2023-03-21T22:46:53.557Z,80.80
2023-03-21T22:49:21.383Z,81.13
2023-03-21T22:51:49.246Z,81.27
2023-03-21T22:54:17.146Z,81.13
2023-03-21T22:56:45.202Z,81.11
2023-03-21T22:59:14.366Z,81.23
2023-03-21T23:01:42.220Z,81.25
2023-03-21T23:04:10.193Z,81.25
2023-03-21T23:06:38.232Z,81.38
2023-03-21T23:09:06.127Z,81.43
2023-03-21T23:11:34.019Z,81.36
2023-03-21T23:14:08.118Z,81.43
2023-03-21T23:16:38.663Z,81.48
2023-03-21T23:19:08.094Z,81.44
2023-03-21T23:21:38.204Z,81.52
2023-03-21T23:24:06.602Z,81.43
2023-03-21T23:26:35.247Z,81.47
2023-03-21T23:29:03.205Z,81.58
2023-03-21T23:31:32.875Z,81.48
2023-03-21T23:34:02.641Z,81.56
2023-03-21T23:36:31.136Z,81.57
2023-03-21T23:38:59.203Z,81.50
2023-03-21T23:41:27.385Z,81.59
2023-03-21T23:43:55.324Z,81.67
2023-03-21T23:46:23.242Z,81.73
2023-03-21T23:48:51.125Z,81.78
2023-03-21T23:51:20.299Z,81.96
2023-03-21T23:53:48.506Z,82.02
2023-03-21T23:56:18.706Z,82.09
2023-03-21T23:58:46.979Z,82.16
